createdAt,value
2017-08-31T00:00:14.887Z,13.30
2017-08-31T00:02:42.519Z,13.90
2017-08-31T00:05:10.163Z,13.60
2017-08-31T00:07:37.801Z,13.00
2017-08-31T00:10:05.435Z,20.07
2017-08-31T00:12:33.074Z,13.97
2017-08-31T00:15:00.704Z,16.20
2017-08-31T00:17:28.375Z,14.03
2017-08-31T00:19:55.981Z,14.67
2017-08-31T00:22:23.620Z,14.13
2017-08-31T00:24:51.352Z,15.80
2017-08-31T00:27:18.974Z,12.13
2017-08-31T00:29:46.591Z,11.90
2017-08-31T00:32:14.227Z,15.23
2017-08-31T00:34:41.846Z,23.03
2017-08-31T00:37:09.827Z,14.73
2017-08-31T00:39:37.831Z,12.43
2017-08-31T00:42:05.538Z,14.50
2017-08-31T00:44:33.194Z,14.30
2017-08-31T00:47:00.899Z,16.97
2017-08-31T00:49:28.508Z,17.03
2017-08-31T00:51:56.185Z,17.73
2017-08-31T00:54:24.192Z,16.13
2017-08-31T00:56:51.882Z,21.00
2017-08-31T00:59:19.632Z,15.30
2017-08-31T01:01:47.302Z,32.53
2017-08-31T01:04:14.916Z,17.50
2017-08-31T01:06:42.624Z,17.23
2017-08-31T01:09:10.405Z,17.87
2017-08-31T01:11:38.064Z,16.37
2017-08-31T01:14:05.800Z,14.50
2017-08-31T01:16:33.443Z,13.97
2017-08-31T01:19:01.069Z,14.00
2017-08-31T01:21:28.789Z,18.90
2017-08-31T01:23:56.437Z,18.27
2017-08-31T01:26:24.122Z,18.80
2017-08-31T01:28:52.484Z,17.00
2017-08-31T01:31:20.149Z,15.80
2017-08-31T01:33:47.790Z,16.30
2017-08-31T01:36:15.455Z,21.50
2017-08-31T01:38:43.066Z,16.10
2017-08-31T01:41:10.744Z,16.13
2017-08-31T01:43:38.381Z,14.67
2017-08-31T01:46:06.095Z,13.23
2017-08-31T01:48:33.736Z,13.97
2017-08-31T01:51:01.393Z,17.23
2017-08-31T01:53:29.049Z,16.97
2017-08-31T01:55:56.676Z,17.50
2017-08-31T01:58:24.336Z,16.27
2017-08-31T02:00:51.993Z,19.80
2017-08-31T02:03:19.616Z,19.40
2017-08-31T02:05:47.316Z,17.93
2017-08-31T02:08:14.960Z,16.60
2017-08-31T02:10:43.609Z,14.97
2017-08-31T02:13:11.933Z,16.10
2017-08-31T02:15:39.889Z,18.70
2017-08-31T02:18:07.985Z,23.23
2017-08-31T02:20:36.040Z,20.07
2017-08-31T02:23:03.688Z,15.70
2017-08-31T02:25:31.500Z,17.43
2017-08-31T02:27:59.478Z,19.37
2017-08-31T02:30:27.092Z,17.30
2017-08-31T02:32:54.784Z,17.20
2017-08-31T02:35:22.389Z,17.17
2017-08-31T02:37:49.983Z,17.43
2017-08-31T02:40:17.752Z,15.27
2017-08-31T02:42:45.356Z,17.70
2017-08-31T02:45:13.012Z,18.00
2017-08-31T02:47:40.654Z,17.20
2017-08-31T02:50:08.282Z,15.97
2017-08-31T02:52:36.210Z,17.97
2017-08-31T02:55:03.964Z,17.73
2017-08-31T02:57:31.664Z,19.90
2017-08-31T02:59:59.260Z,18.03
2017-08-31T03:02:26.879Z,41.17
2017-08-31T03:04:54.562Z,21.00
2017-08-31T03:07:22.186Z,17.53
2017-08-31T03:09:51.609Z,16.80
2017-08-31T03:12:19.798Z,16.87
2017-08-31T03:14:47.636Z,18.93
2017-08-31T03:17:15.262Z,15.87
2017-08-31T03:19:42.901Z,17.73
2017-08-31T03:22:11.412Z,18.63
2017-08-31T03:24:39.075Z,20.37
2017-08-31T03:27:06.907Z,18.50
2017-08-31T03:29:34.504Z,20.53
2017-08-31T03:32:02.112Z,18.77
2017-08-31T03:34:29.752Z,18.40
2017-08-31T03:36:57.354Z,17.30
2017-08-31T03:39:24.986Z,18.30
2017-08-31T03:41:52.644Z,19.23
2017-08-31T03:44:20.253Z,22.77
2017-08-31T03:46:47.890Z,16.80
2017-08-31T03:49:15.517Z,15.40
2017-08-31T03:51:43.168Z,17.23
2017-08-31T03:54:10.784Z,23.83
2017-08-31T03:56:38.414Z,19.80
2017-08-31T03:59:06.050Z,24.00
2017-08-31T04:01:33.670Z,20.30
2017-08-31T04:04:01.316Z,13.37
2017-08-31T04:06:28.912Z,15.80
2017-08-31T04:08:56.537Z,23.07
2017-08-31T04:11:24.191Z,18.93
2017-08-31T04:13:51.844Z,14.37
2017-08-31T04:16:19.471Z,18.90
2017-08-31T04:18:47.139Z,22.93
2017-08-31T04:21:14.760Z,17.57
2017-08-31T04:23:42.400Z,18.07
2017-08-31T04:26:10.275Z,21.07
2017-08-31T04:28:37.907Z,19.97
2017-08-31T04:31:05.548Z,24.90
2017-08-31T04:33:33.195Z,19.67
2017-08-31T04:36:00.819Z,19.90
2017-08-31T04:38:28.438Z,19.90
2017-08-31T04:40:56.069Z,21.40
2017-08-31T04:43:23.707Z,21.57
2017-08-31T04:45:52.681Z,22.93
2017-08-31T04:48:20.724Z,19.13
2017-08-31T04:50:48.347Z,18.23
2017-08-31T04:53:15.983Z,17.00
2017-08-31T04:55:43.594Z,19.00
2017-08-31T04:58:11.208Z,19.63
2017-08-31T05:00:38.842Z,18.27
2017-08-31T05:03:06.528Z,18.03
2017-08-31T05:05:35.252Z,15.63
2017-08-31T05:08:02.915Z,16.13
2017-08-31T05:10:30.572Z,19.87
2017-08-31T05:12:58.195Z,19.20
2017-08-31T05:15:25.873Z,21.37
2017-08-31T05:17:53.578Z,20.37
2017-08-31T05:20:21.238Z,15.00
2017-08-31T05:22:48.896Z,21.00
2017-08-31T05:25:16.547Z,16.27
2017-08-31T05:27:44.185Z,17.10
2017-08-31T05:30:11.825Z,13.93
2017-08-31T05:32:39.472Z,18.47
2017-08-31T05:35:07.179Z,18.30
2017-08-31T05:37:35.618Z,20.60
2017-08-31T05:40:03.300Z,19.07
2017-08-31T05:42:30.993Z,18.90
2017-08-31T05:44:58.637Z,19.40
2017-08-31T05:47:26.400Z,17.67
2017-08-31T05:49:54.150Z,17.40
2017-08-31T05:52:22.966Z,19.30
2017-08-31T05:54:50.595Z,17.10
2017-08-31T05:57:18.260Z,15.43
2017-08-31T05:59:45.920Z,24.43
2017-08-31T06:02:13.706Z,43.03
2017-08-31T06:04:41.378Z,20.73
2017-08-31T06:07:09.277Z,20.03
2017-08-31T06:09:37.193Z,16.63
2017-08-31T06:12:07.639Z,17.10
2017-08-31T06:14:35.658Z,19.63
2017-08-31T06:17:03.291Z,17.40
2017-08-31T06:19:31.098Z,20.33
2017-08-31T06:22:01.553Z,17.27
2017-08-31T06:24:29.938Z,18.93
2017-08-31T06:26:57.728Z,16.70
2017-08-31T06:29:25.537Z,16.47
2017-08-31T06:31:53.759Z,16.10
2017-08-31T06:34:21.412Z,16.20
2017-08-31T06:36:49.051Z,15.90
2017-08-31T06:39:16.660Z,19.50
2017-08-31T06:41:44.323Z,16.13
2017-08-31T06:44:11.948Z,17.30
2017-08-31T06:46:39.602Z,16.23
2017-08-31T06:49:10.619Z,17.30
2017-08-31T06:51:38.943Z,15.30
2017-08-31T06:54:07.544Z,24.90
2017-08-31T06:56:35.475Z,15.40
2017-08-31T06:59:05.255Z,19.30
2017-08-31T07:01:37.614Z,13.93
2017-08-31T07:04:08.402Z,14.40
2017-08-31T07:06:36.122Z,15.87
2017-08-31T07:09:06.625Z,19.30
2017-08-31T07:11:34.248Z,19.43
2017-08-31T07:14:02.007Z,18.20
2017-08-31T07:16:29.838Z,16.33
2017-08-31T07:18:59.848Z,16.20
2017-08-31T07:21:27.489Z,16.30
2017-08-31T07:23:55.228Z,14.27
2017-08-31T07:26:22.892Z,17.00
2017-08-31T07:28:51.552Z,15.67
2017-08-31T07:31:19.408Z,14.17
2017-08-31T07:33:47.872Z,14.50
2017-08-31T07:36:18.478Z,15.20
2017-08-31T07:38:46.782Z,13.20
2017-08-31T07:41:15.163Z,15.10
2017-08-31T07:43:42.978Z,15.23
2017-08-31T07:46:13.903Z,14.33
2017-08-31T07:48:42.259Z,15.10
2017-08-31T07:51:12.011Z,15.13
2017-08-31T07:53:39.625Z,15.77
2017-08-31T07:56:07.650Z,14.57
2017-08-31T07:58:38.473Z,16.87
2017-08-31T08:01:07.449Z,16.17
2017-08-31T08:03:37.072Z,13.70
2017-08-31T08:06:05.173Z,13.93
2017-08-31T08:08:33.635Z,15.23
2017-08-31T08:13:33.720Z,15.47
2017-08-31T08:16:01.349Z,15.00
2017-08-31T08:18:29.020Z,24.53
2017-08-31T08:20:56.745Z,15.10
2017-08-31T08:23:25.158Z,19.10
2017-08-31T08:25:52.990Z,14.60
2017-08-31T08:28:20.849Z,16.13
2017-08-31T08:30:48.528Z,14.70
2017-08-31T08:33:16.160Z,13.50
2017-08-31T08:35:43.856Z,19.63
2017-08-31T08:38:11.629Z,15.33
2017-08-31T08:40:39.349Z,14.77
2017-08-31T08:43:07.130Z,16.73
2017-08-31T08:45:34.830Z,14.33
2017-08-31T08:48:02.465Z,16.87
2017-08-31T08:50:30.173Z,12.87
2017-08-31T08:52:57.823Z,20.23
2017-08-31T08:55:25.506Z,14.83
2017-08-31T08:57:53.196Z,13.97
2017-08-31T09:00:20.849Z,14.53
2017-08-31T09:02:48.488Z,14.90
2017-08-31T09:05:16.161Z,14.47
2017-08-31T09:07:43.874Z,13.03
2017-08-31T09:10:11.636Z,14.10
2017-08-31T09:12:39.344Z,15.77
2017-08-31T09:15:07.253Z,11.93
2017-08-31T09:17:35.280Z,13.10
2017-08-31T09:20:03.085Z,13.50
2017-08-31T09:22:30.799Z,11.80
2017-08-31T09:24:58.483Z,12.23
2017-08-31T09:27:26.239Z,11.27
2017-08-31T09:29:54.014Z,10.53
2017-08-31T09:32:21.919Z,13.53
2017-08-31T09:37:23.483Z,13.97
2017-08-31T09:39:51.230Z,17.23
2017-08-31T09:42:19.054Z,18.10
2017-08-31T09:44:46.756Z,12.77
2017-08-31T09:47:14.871Z,11.80
2017-08-31T09:49:42.641Z,12.00
2017-08-31T09:52:10.383Z,12.27
2017-08-31T09:54:38.684Z,11.67
2017-08-31T09:57:06.405Z,15.73
2017-08-31T09:59:34.016Z,14.10
2017-08-31T10:02:01.703Z,9.50
2017-08-31T10:04:38.873Z,14.93
2017-08-31T10:07:06.768Z,10.37
2017-08-31T10:09:34.546Z,11.93
2017-08-31T10:12:02.216Z,13.17
2017-08-31T10:14:30.362Z,11.63
2017-08-31T10:17:00.139Z,14.80
2017-08-31T10:19:28.682Z,13.43
2017-08-31T10:21:58.180Z,12.70
2017-08-31T10:24:25.810Z,14.97
2017-08-31T10:26:57.641Z,12.80
2017-08-31T10:29:25.306Z,13.50
2017-08-31T10:31:53.289Z,14.13
2017-08-31T10:34:20.990Z,11.43
2017-08-31T10:36:48.628Z,15.10
2017-08-31T10:39:16.408Z,13.07
2017-08-31T10:41:44.265Z,13.20
2017-08-31T10:44:12.155Z,12.20
2017-08-31T10:46:39.797Z,13.17
2017-08-31T10:49:07.557Z,13.37
2017-08-31T10:51:35.195Z,10.20
2017-08-31T10:54:02.895Z,11.13
2017-08-31T10:56:30.557Z,19.77
2017-08-31T10:58:58.248Z,11.97
2017-08-31T11:01:26.274Z,17.63
2017-08-31T11:03:53.955Z,13.60
2017-08-31T11:06:22.225Z,13.40
2017-08-31T11:08:50.753Z,10.80
2017-08-31T11:11:18.450Z,14.63
2017-08-31T11:13:46.104Z,10.30
2017-08-31T11:16:13.739Z,11.07
2017-08-31T11:18:41.419Z,16.13
2017-08-31T11:21:09.212Z,11.60
2017-08-31T11:23:36.847Z,14.60
2017-08-31T11:26:04.508Z,14.57
2017-08-31T11:28:32.250Z,11.37
2017-08-31T11:30:59.943Z,10.47
2017-08-31T11:33:27.794Z,14.60
2017-08-31T11:35:55.560Z,13.53
2017-08-31T11:38:23.281Z,17.33
2017-08-31T11:43:24.996Z,14.50
2017-08-31T11:45:52.640Z,22.50
2017-08-31T11:48:20.244Z,17.93
2017-08-31T11:50:47.915Z,16.87
2017-08-31T11:53:15.525Z,13.57
2017-08-31T11:55:43.191Z,18.10
2017-08-31T11:58:10.947Z,15.90
2017-08-31T12:00:38.578Z,13.50
2017-08-31T12:03:06.254Z,14.90
2017-08-31T12:05:33.924Z,14.30
2017-08-31T12:08:01.566Z,17.87
2017-08-31T12:10:30.531Z,15.63
2017-08-31T12:12:58.224Z,16.20
2017-08-31T12:15:26.124Z,16.60
2017-08-31T12:17:53.769Z,13.47
2017-08-31T12:20:21.487Z,17.23
2017-08-31T12:22:49.101Z,12.60
2017-08-31T12:25:16.733Z,12.20
2017-08-31T12:27:44.412Z,14.37
2017-08-31T12:30:12.300Z,17.67
2017-08-31T12:32:40.206Z,12.67
2017-08-31T12:35:07.869Z,16.30
2017-08-31T12:37:35.539Z,17.10
2017-08-31T12:40:03.155Z,13.03
2017-08-31T12:42:30.805Z,13.90
2017-08-31T12:44:58.529Z,13.60
2017-08-31T12:47:26.265Z,12.20
2017-08-31T12:49:53.909Z,13.93
2017-08-31T12:52:22.476Z,14.40
2017-08-31T12:54:50.149Z,13.07
2017-08-31T12:57:17.818Z,18.03
2017-08-31T12:59:45.500Z,14.53
2017-08-31T13:02:13.153Z,17.30
2017-08-31T13:04:40.796Z,14.67
2017-08-31T13:07:08.468Z,15.33
2017-08-31T13:09:36.115Z,12.00
2017-08-31T13:12:03.980Z,17.10
2017-08-31T13:14:31.597Z,17.73
2017-08-31T13:16:59.248Z,18.63
2017-08-31T13:19:26.902Z,15.30
2017-08-31T13:21:54.563Z,14.23
2017-08-31T13:26:57.942Z,11.97
2017-08-31T13:29:25.616Z,20.53
2017-08-31T13:31:53.215Z,14.20
2017-08-31T13:34:21.190Z,13.47
2017-08-31T13:36:48.842Z,13.00
2017-08-31T13:39:16.492Z,13.13
2017-08-31T13:41:44.193Z,13.70
2017-08-31T13:44:15.448Z,14.90
2017-08-31T13:46:43.139Z,10.83
2017-08-31T13:49:10.881Z,18.23
2017-08-31T13:51:38.528Z,13.90
2017-08-31T13:54:07.068Z,20.97
2017-08-31T13:56:34.742Z,13.83
2017-08-31T13:59:02.372Z,12.43
2017-08-31T14:01:31.360Z,11.03
2017-08-31T14:03:59.105Z,15.03
2017-08-31T14:06:26.754Z,14.50
2017-08-31T14:08:56.567Z,13.63
2017-08-31T14:11:24.297Z,13.43
2017-08-31T14:13:53.404Z,14.50
2017-08-31T14:16:21.203Z,20.97
2017-08-31T14:18:50.265Z,10.97
2017-08-31T14:21:19.084Z,14.83
2017-08-31T14:23:47.610Z,14.40
2017-08-31T14:26:16.040Z,11.23
2017-08-31T14:28:43.699Z,15.23
2017-08-31T14:31:12.891Z,14.57
2017-08-31T14:33:41.123Z,15.60
2017-08-31T14:36:09.209Z,23.67
2017-08-31T14:38:37.816Z,18.77
2017-08-31T14:41:05.492Z,13.30
2017-08-31T14:43:33.129Z,21.37
2017-08-31T14:46:05.605Z,16.93
2017-08-31T14:48:35.300Z,19.73
2017-08-31T14:51:04.943Z,12.63
2017-08-31T14:53:33.127Z,14.33
2017-08-31T14:56:00.818Z,15.63
2017-08-31T14:58:28.501Z,16.37
2017-08-31T15:00:56.272Z,16.70
2017-08-31T15:03:23.913Z,17.33
2017-08-31T15:05:51.588Z,18.73
2017-08-31T15:08:20.059Z,20.00
2017-08-31T15:10:47.827Z,13.03
2017-08-31T15:13:15.493Z,12.93
2017-08-31T15:15:43.148Z,18.07
2017-08-31T15:18:11.137Z,28.63
2017-08-31T15:20:38.817Z,25.30
2017-08-31T15:23:06.620Z,23.47
2017-08-31T15:25:34.324Z,24.03
2017-08-31T15:28:01.953Z,17.10
2017-08-31T15:30:29.954Z,15.93
2017-08-31T15:32:57.608Z,21.40
2017-08-31T15:35:25.285Z,22.30
2017-08-31T15:37:52.893Z,28.37
2017-08-31T15:40:21.394Z,22.27
2017-08-31T15:42:49.088Z,19.67
2017-08-31T15:45:16.728Z,16.63
2017-08-31T15:47:44.390Z,17.47
2017-08-31T15:50:12.205Z,15.00
2017-08-31T15:52:39.852Z,19.77
2017-08-31T15:55:07.567Z,18.63
2017-08-31T15:57:35.212Z,39.30
2017-08-31T16:00:03.328Z,33.80
2017-08-31T16:02:30.997Z,24.07
2017-08-31T16:04:58.681Z,26.90
2017-08-31T16:07:26.369Z,23.30
2017-08-31T16:09:54.059Z,21.77
2017-08-31T16:12:22.602Z,31.67
2017-08-31T16:14:50.681Z,21.53
2017-08-31T16:17:18.417Z,16.47
2017-08-31T16:19:46.115Z,22.00
2017-08-31T16:22:13.897Z,35.07
2017-08-31T16:24:41.551Z,49.10
2017-08-31T16:27:09.513Z,30.80
2017-08-31T16:29:37.250Z,24.83
2017-08-31T16:32:04.938Z,22.63
2017-08-31T16:34:32.887Z,24.77
2017-08-31T16:37:00.970Z,25.70
2017-08-31T16:39:28.603Z,27.90
2017-08-31T16:41:56.278Z,24.80
2017-08-31T16:44:23.969Z,24.43
2017-08-31T16:46:52.309Z,30.10
2017-08-31T16:49:20.035Z,27.90
2017-08-31T16:51:47.664Z,30.50
2017-08-31T16:54:15.405Z,33.50
2017-08-31T16:56:43.114Z,23.80
2017-08-31T16:59:11.547Z,21.80
2017-08-31T17:01:39.283Z,25.33
2017-08-31T17:04:07.019Z,19.30
2017-08-31T17:06:36.443Z,18.13
2017-08-31T17:09:05.770Z,19.23
2017-08-31T17:11:34.777Z,15.70
2017-08-31T17:14:02.475Z,19.57
2017-08-31T17:16:30.141Z,18.90
2017-08-31T17:18:57.899Z,17.90
2017-08-31T17:21:25.568Z,22.37
2017-08-31T17:23:53.155Z,16.60
2017-08-31T17:26:20.794Z,20.27
2017-08-31T17:28:48.434Z,25.40
2017-08-31T17:31:16.054Z,21.30
2017-08-31T17:33:43.701Z,18.97
2017-08-31T17:36:11.453Z,19.50
2017-08-31T17:38:39.092Z,17.27
2017-08-31T17:41:06.817Z,22.27
2017-08-31T17:43:36.204Z,23.60
2017-08-31T17:46:03.829Z,22.33
2017-08-31T17:48:31.423Z,19.20
2017-08-31T17:50:59.086Z,25.10
2017-08-31T17:53:28.248Z,15.57
2017-08-31T17:55:55.872Z,23.43
2017-08-31T17:58:23.612Z,17.90
2017-08-31T18:00:51.264Z,17.80
2017-08-31T18:03:19.858Z,20.93
2017-08-31T18:05:47.588Z,19.70
2017-08-31T18:08:15.233Z,19.70
2017-08-31T18:10:42.864Z,19.30
2017-08-31T18:13:10.736Z,20.90
2017-08-31T18:15:39.054Z,16.13
2017-08-31T18:18:06.747Z,28.33
2017-08-31T18:20:34.429Z,16.67
2017-08-31T18:23:02.072Z,15.13
2017-08-31T18:25:29.724Z,20.23
2017-08-31T18:27:59.335Z,13.57
2017-08-31T18:30:26.932Z,14.57
2017-08-31T18:32:57.305Z,11.37
2017-08-31T18:35:26.187Z,16.13
2017-08-31T18:37:53.974Z,14.50
2017-08-31T18:40:21.613Z,15.03
2017-08-31T18:42:49.256Z,20.33
2017-08-31T18:45:16.865Z,17.80
2017-08-31T18:47:45.301Z,11.70
2017-08-31T18:50:12.975Z,16.60
2017-08-31T18:52:40.742Z,18.30
2017-08-31T18:55:08.723Z,15.10
2017-08-31T18:57:36.749Z,12.10
2017-08-31T19:00:04.512Z,19.27
2017-08-31T19:02:32.125Z,12.60
2017-08-31T19:04:59.771Z,12.63
2017-08-31T19:07:27.649Z,13.33
2017-08-31T19:09:55.352Z,16.53
2017-08-31T19:12:23.096Z,16.30
2017-08-31T19:14:50.751Z,18.33
2017-08-31T19:17:18.417Z,18.80
2017-08-31T19:19:46.032Z,20.23
2017-08-31T19:22:13.636Z,19.47
2017-08-31T19:24:41.295Z,17.53
2017-08-31T19:27:08.976Z,25.97
2017-08-31T19:29:36.620Z,22.23
2017-08-31T19:32:04.310Z,18.60
2017-08-31T19:34:31.935Z,19.07
2017-08-31T19:36:59.624Z,19.87
2017-08-31T19:39:27.285Z,15.80
2017-08-31T19:41:54.970Z,14.93
2017-08-31T19:44:23.475Z,13.73
2017-08-31T19:46:51.168Z,15.50
2017-08-31T19:49:18.841Z,15.87
2017-08-31T19:51:46.521Z,14.97
2017-08-31T19:54:14.433Z,15.73
2017-08-31T19:56:42.072Z,12.83
2017-08-31T19:59:09.819Z,20.10
2017-08-31T20:01:37.509Z,16.80
2017-08-31T20:04:05.194Z,17.03
2017-08-31T20:06:32.890Z,18.13
2017-08-31T20:09:00.569Z,16.73
2017-08-31T20:11:28.300Z,16.63
2017-08-31T20:13:56.115Z,19.63
2017-08-31T20:16:24.619Z,12.13
2017-08-31T20:18:52.316Z,11.13
2017-08-31T20:21:20.094Z,13.60
2017-08-31T20:23:47.788Z,14.23
2017-08-31T20:26:15.800Z,12.60
2017-08-31T20:28:43.552Z,10.87
2017-08-31T20:31:12.123Z,13.77
2017-08-31T20:33:39.777Z,12.20
2017-08-31T20:36:07.554Z,10.50
2017-08-31T20:38:35.373Z,7.93
2017-08-31T20:41:03.747Z,16.67
2017-08-31T20:43:33.732Z,8.40
2017-08-31T20:46:02.343Z,17.57
2017-08-31T20:48:30.015Z,8.87
2017-08-31T20:50:57.830Z,10.00
2017-08-31T20:53:25.577Z,6.40
2017-08-31T20:55:53.441Z,6.63
2017-08-31T20:58:21.195Z,7.80
2017-08-31T21:00:49.063Z,5.73
2017-08-31T21:03:16.676Z,4.73
2017-08-31T21:05:45.334Z,9.13
2017-08-31T21:08:13.393Z,6.30
2017-08-31T21:10:43.135Z,8.03
2017-08-31T21:13:11.163Z,5.60
2017-08-31T21:15:38.870Z,10.80
2017-08-31T21:18:07.371Z,7.10
2017-08-31T21:20:35.953Z,7.23
2017-08-31T21:23:03.764Z,7.17
2017-08-31T21:25:33.423Z,7.03
2017-08-31T21:28:06.265Z,4.00
2017-08-31T21:30:33.905Z,4.20
2017-08-31T21:33:01.537Z,3.30
2017-08-31T21:35:29.621Z,2.97
2017-08-31T21:37:58.846Z,2.60
2017-08-31T21:40:27.223Z,3.50
2017-08-31T21:42:55.843Z,24.70
2017-08-31T21:45:23.460Z,6.87
2017-08-31T21:47:51.101Z,2.53
2017-08-31T21:50:19.028Z,3.80
2017-08-31T21:52:46.715Z,2.80
2017-08-31T21:55:14.445Z,2.67
2017-08-31T21:57:43.099Z,2.20
2017-08-31T22:00:10.857Z,1.77
2017-08-31T22:02:39.540Z,2.10
2017-08-31T22:05:07.179Z,8.97
2017-08-31T22:07:34.872Z,5.03
2017-08-31T22:10:02.496Z,7.40
2017-08-31T22:12:30.131Z,5.43
2017-08-31T22:14:58.680Z,3.67
2017-08-31T22:17:26.454Z,2.90
2017-08-31T22:19:54.098Z,3.67
2017-08-31T22:22:22.534Z,3.70
2017-08-31T22:24:51.093Z,3.90
2017-08-31T22:27:18.732Z,4.40
2017-08-31T22:29:46.371Z,4.10
2017-08-31T22:32:13.987Z,4.03
2017-08-31T22:34:41.663Z,4.80
2017-08-31T22:37:12.597Z,4.50
2017-08-31T22:39:40.229Z,5.17
2017-08-31T22:42:07.926Z,3.17
2017-08-31T22:44:35.599Z,3.40
2017-08-31T22:47:03.225Z,3.37
2017-08-31T22:49:30.896Z,3.87
2017-08-31T22:51:58.545Z,3.70
2017-08-31T22:54:26.163Z,7.67
2017-08-31T22:56:54.924Z,6.43
2017-08-31T22:59:22.547Z,17.60
2017-08-31T23:01:50.201Z,23.07
2017-08-31T23:04:17.811Z,3.97
2017-08-31T23:06:45.429Z,5.50
2017-08-31T23:09:13.038Z,4.20
2017-08-31T23:11:40.637Z,4.10
2017-08-31T23:14:08.414Z,5.60
2017-08-31T23:16:36.027Z,6.20
2017-08-31T23:19:03.690Z,4.50
2017-08-31T23:21:31.455Z,6.50
2017-08-31T23:23:59.088Z,6.73
2017-08-31T23:26:26.707Z,3.67
2017-08-31T23:28:54.427Z,3.60
2017-08-31T23:31:22.089Z,6.60
2017-08-31T23:33:49.696Z,5.03
2017-08-31T23:36:17.342Z,4.80
2017-08-31T23:38:44.951Z,7.63
2017-08-31T23:41:12.581Z,4.83
2017-08-31T23:43:40.231Z,9.00
2017-08-31T23:46:07.823Z,8.63
2017-08-31T23:48:35.457Z,3.93
2017-08-31T23:51:03.094Z,3.03
2017-08-31T23:53:30.728Z,3.47
2017-08-31T23:55:58.362Z,3.13
2017-08-31T23:58:25.981Z,4.33
